sensor_id;sensor_type;location;lat;lon;timestamp;temperature;humidity
59651;DHT22;45954;49.768;8.636;2022-09-17T00:01:05;11.60;99.90
59651;DHT22;45954;49.768;8.636;2022-09-17T00:03:33;11.60;99.90
59651;DHT22;45954;49.768;8.636;2022-09-17T00:06:02;11.50;99.90
59651;DHT22;45954;49.768;8.636;2022-09-17T00:08:30;11.60;99.90
59651;DHT22;45954;49.768;8.636;2022-09-17T00:10:57;11.60;99.90
59651;DHT22;45954;49.768;8.636;2022-09-17T00:13:23;11.80;99.90
59651;DHT22;45954;49.768;8.636;2022-09-17T00:15:49;11.80;99.90
59651;DHT22;45954;49.768;8.636;2022-09-17T00:18:18;11.80;99.90
59651;DHT22;45954;49.768;8.636;2022-09-17T00:20:46;11.80;99.90
59651;DHT22;45954;49.768;8.636;2022-09-17T00:23:13;11.90;99.90
59651;DHT22;45954;49.768;8.636;2022-09-17T00:25:41;11.80;99.90
59651;DHT22;45954;49.768;8.636;2022-09-17T00:28:09;11.80;99.90
59651;DHT22;45954;49.768;8.636;2022-09-17T00:30:42;11.70;99.90
59651;DHT22;45954;49.768;8.636;2022-09-17T00:33:14;11.60;99.90
59651;DHT22;45954;49.768;8.636;2022-09-17T00:35:41;11.60;99.90
59651;DHT22;45954;49.768;8.636;2022-09-17T00:38:07;11.60;99.90
59651;DHT22;45954;49.768;8.636;2022-09-17T00:40:34;11.70;99.90
59651;DHT22;45954;49.768;8.636;2022-09-17T00:43:02;11.30;99.90
59651;DHT22;45954;49.768;8.636;2022-09-17T00:45:29;11.30;99.90
59651;DHT22;45954;49.768;8.636;2022-09-17T00:48:03;11.50;99.90
59651;DHT22;45954;49.768;8.636;2022-09-17T00:50:35;11.60;99.90
59651;DHT22;45954;49.768;8.636;2022-09-17T00:53:08;11.60;99.90
59651;DHT22;45954;49.768;8.636;2022-09-17T00:55:39;11.40;99.90
59651;DHT22;45954;49.768;8.636;2022-09-17T00:58:16;11.30;99.90
59651;DHT22;45954;49.768;8.636;2022-09-17T01:00:43;11.40;99.90
59651;DHT22;45954;49.768;8.636;2022-09-17T01:03:11;11.40;99.90
59651;DHT22;45954;49.768;8.636;2022-09-17T01:06:08;11.50;99.90
59651;DHT22;45954;49.768;8.636;2022-09-17T01:15:22;11.40;99.90
59651;DHT22;45954;49.768;8.636;2022-09-17T01:30:00;11.30;99.90
59651;DHT22;45954;49.768;8.636;2022-09-17T01:38:45;11.50;99.90
59651;DHT22;45954;49.768;8.636;2022-09-17T01:41:36;11.30;99.90
59651;DHT22;45954;49.768;8.636;2022-09-17T01:44:27;11.20;99.90
59651;DHT22;45954;49.768;8.636;2022-09-17T01:47:04;11.30;99.90
59651;DHT22;45954;49.768;8.636;2022-09-17T01:49:38;11.40;99.90
59651;DHT22;45954;49.768;8.636;2022-09-17T01:52:08;11.50;99.90
59651;DHT22;45954;49.768;8.636;2022-09-17T01:54:41;11.20;99.90
59651;DHT22;45954;49.768;8.636;2022-09-17T02:00:09;11.20;99.90
59651;DHT22;45954;49.768;8.636;2022-09-17T02:02:47;11.20;99.90
59651;DHT22;45954;49.768;8.636;2022-09-17T02:05:21;11.10;99.90
59651;DHT22;45954;49.768;8.636;2022-09-17T02:07:57;11.30;99.90
59651;DHT22;45954;49.768;8.636;2022-09-17T02:10:32;11.50;99.90
59651;DHT22;45954;49.768;8.636;2022-09-17T02:13:13;11.50;99.90
59651;DHT22;45954;49.768;8.636;2022-09-17T02:15:58;11.50;99.90
59651;DHT22;45954;49.768;8.636;2022-09-17T02:21:41;11.70;99.90
59651;DHT22;45954;49.768;8.636;2022-09-17T02:24:18;11.60;99.90
59651;DHT22;45954;49.768;8.636;2022-09-17T02:29:37;11.70;99.90
59651;DHT22;45954;49.768;8.636;2022-09-17T02:32:04;11.90;99.90
59651;DHT22;45954;49.768;8.636;2022-09-17T02:34:31;11.90;99.90
59651;DHT22;45954;49.768;8.636;2022-09-17T02:36:57;12.00;99.90
59651;DHT22;45954;49.768;8.636;2022-09-17T02:39:24;12.10;99.90
59651;DHT22;45954;49.768;8.636;2022-09-17T02:45:19;12.00;99.90
59651;DHT22;45954;49.768;8.636;2022-09-17T02:48:19;11.80;99.90
59651;DHT22;45954;49.768;8.636;2022-09-17T02:51:28;12.00;99.90
59651;DHT22;45954;49.768;8.636;2022-09-17T02:54:28;11.80;99.90
59651;DHT22;45954;49.768;8.636;2022-09-17T03:00:13;12.00;99.90
59651;DHT22;45954;49.768;8.636;2022-09-17T03:02:49;12.20;99.90
59651;DHT22;45954;49.768;8.636;2022-09-17T03:05:20;12.20;99.90
59651;DHT22;45954;49.768;8.636;2022-09-17T03:07:48;12.30;99.90
59651;DHT22;45954;49.768;8.636;2022-09-17T03:10:15;12.20;99.90
59651;DHT22;45954;49.768;8.636;2022-09-17T03:12:41;12.00;99.90
59651;DHT22;45954;49.768;8.636;2022-09-17T03:15:08;11.80;99.90
59651;DHT22;45954;49.768;8.636;2022-09-17T03:17:35;11.60;99.90
59651;DHT22;45954;49.768;8.636;2022-09-17T03:20:01;11.80;99.90
59651;DHT22;45954;49.768;8.636;2022-09-17T03:22:27;11.80;99.90
59651;DHT22;45954;49.768;8.636;2022-09-17T03:24:53;11.80;99.90
59651;DHT22;45954;49.768;8.636;2022-09-17T03:27:19;11.80;99.90
59651;DHT22;45954;49.768;8.636;2022-09-17T03:29:44;11.70;99.90
59651;DHT22;45954;49.768;8.636;2022-09-17T03:32:10;11.90;99.90
59651;DHT22;45954;49.768;8.636;2022-09-17T03:34:36;12.10;99.90
59651;DHT22;45954;49.768;8.636;2022-09-17T03:37:02;12.30;99.90
59651;DHT22;45954;49.768;8.636;2022-09-17T03:39:28;12.40;99.90
59651;DHT22;45954;49.768;8.636;2022-09-17T03:41:54;11.90;99.90
59651;DHT22;45954;49.768;8.636;2022-09-17T03:44:20;12.10;99.90
59651;DHT22;45954;49.768;8.636;2022-09-17T03:46:49;12.10;99.90
59651;DHT22;45954;49.768;8.636;2022-09-17T03:49:15;12.00;99.90
59651;DHT22;45954;49.768;8.636;2022-09-17T03:51:40;12.20;99.90
59651;DHT22;45954;49.768;8.636;2022-09-17T03:54:06;12.20;99.90
59651;DHT22;45954;49.768;8.636;2022-09-17T03:56:32;12.30;99.90
59651;DHT22;45954;49.768;8.636;2022-09-17T03:58:59;12.40;99.90
59651;DHT22;45954;49.768;8.636;2022-09-17T04:01:27;12.40;99.90
59651;DHT22;45954;49.768;8.636;2022-09-17T04:03:53;12.30;99.90
59651;DHT22;45954;49.768;8.636;2022-09-17T04:06:19;12.20;99.90
59651;DHT22;45954;49.768;8.636;2022-09-17T04:08:45;12.30;99.90
59651;DHT22;45954;49.768;8.636;2022-09-17T04:11:11;12.20;99.90
59651;DHT22;45954;49.768;8.636;2022-09-17T04:13:37;12.20;99.90
59651;DHT22;45954;49.768;8.636;2022-09-17T04:16:03;12.30;99.90
59651;DHT22;45954;49.768;8.636;2022-09-17T04:18:29;12.40;99.90
59651;DHT22;45954;49.768;8.636;2022-09-17T04:20:55;12.40;99.90
59651;DHT22;45954;49.768;8.636;2022-09-17T04:23:21;12.30;99.90
59651;DHT22;45954;49.768;8.636;2022-09-17T04:25:48;12.10;99.90
59651;DHT22;45954;49.768;8.636;2022-09-17T04:28:14;12.10;99.90
59651;DHT22;45954;49.768;8.636;2022-09-17T04:30:40;12.20;99.90
59651;DHT22;45954;49.768;8.636;2022-09-17T04:33:08;12.20;99.90
59651;DHT22;45954;49.768;8.636;2022-09-17T04:35:34;12.30;99.90
59651;DHT22;45954;49.768;8.636;2022-09-17T04:38:01;12.40;99.90
59651;DHT22;45954;49.768;8.636;2022-09-17T04:40:26;12.30;99.90
59651;DHT22;45954;49.768;8.636;2022-09-17T04:42:57;12.30;99.90
59651;DHT22;45954;49.768;8.636;2022-09-17T04:45:25;12.20;99.90
59651;DHT22;45954;49.768;8.636;2022-09-17T04:47:51;12.30;99.90
59651;DHT22;45954;49.768;8.636;2022-09-17T04:50:18;12.20;99.90
59651;DHT22;45954;49.768;8.636;2022-09-17T04:52:44;12.30;99.90
59651;DHT22;45954;49.768;8.636;2022-09-17T04:55:11;12.40;99.90
59651;DHT22;45954;49.768;8.636;2022-09-17T04:57:38;12.40;99.90
59651;DHT22;45954;49.768;8.636;2022-09-17T05:00:05;12.50;99.90
59651;DHT22;45954;49.768;8.636;2022-09-17T05:02:35;12.40;99.90
59651;DHT22;45954;49.768;8.636;2022-09-17T05:05:01;12.40;99.90
59651;DHT22;45954;49.768;8.636;2022-09-17T05:07:26;12.20;99.90
59651;DHT22;45954;49.768;8.636;2022-09-17T05:09:52;12.00;99.90
59651;DHT22;45954;49.768;8.636;2022-09-17T05:12:18;12.20;99.90
59651;DHT22;45954;49.768;8.636;2022-09-17T05:14:44;12.20;99.90
59651;DHT22;45954;49.768;8.636;2022-09-17T05:17:10;12.20;99.90
59651;DHT22;45954;49.768;8.636;2022-09-17T05:19:36;12.30;99.90
59651;DHT22;45954;49.768;8.636;2022-09-17T05:22:02;12.40;99.90
59651;DHT22;45954;49.768;8.636;2022-09-17T05:24:28;12.20;99.90
59651;DHT22;45954;49.768;8.636;2022-09-17T05:26:54;12.20;99.90
59651;DHT22;45954;49.768;8.636;2022-09-17T05:29:20;12.20;99.90
59651;DHT22;45954;49.768;8.636;2022-09-17T05:31:45;12.40;99.90
59651;DHT22;45954;49.768;8.636;2022-09-17T05:34:11;12.40;99.90
59651;DHT22;45954;49.768;8.636;2022-09-17T05:36:37;12.40;99.90
59651;DHT22;45954;49.768;8.636;2022-09-17T05:39:03;12.40;99.90
59651;DHT22;45954;49.768;8.636;2022-09-17T05:41:29;12.30;99.90
59651;DHT22;45954;49.768;8.636;2022-09-17T05:43:55;12.40;99.90
59651;DHT22;45954;49.768;8.636;2022-09-17T05:46:21;12.50;99.90
59651;DHT22;45954;49.768;8.636;2022-09-17T05:48:46;12.50;99.90
59651;DHT22;45954;49.768;8.636;2022-09-17T05:51:12;12.50;99.90
59651;DHT22;45954;49.768;8.636;2022-09-17T05:53:38;12.40;99.90
59651;DHT22;45954;49.768;8.636;2022-09-17T05:56:04;11.70;99.90
59651;DHT22;45954;49.768;8.636;2022-09-17T05:58:30;11.80;99.90
59651;DHT22;45954;49.768;8.636;2022-09-17T06:01:00;12.10;99.90
59651;DHT22;45954;49.768;8.636;2022-09-17T06:03:26;12.20;99.90
59651;DHT22;45954;49.768;8.636;2022-09-17T06:05:54;12.30;99.90
59651;DHT22;45954;49.768;8.636;2022-09-17T06:08:22;12.40;99.90
59651;DHT22;45954;49.768;8.636;2022-09-17T06:10:49;12.50;99.90
59651;DHT22;45954;49.768;8.636;2022-09-17T06:13:19;12.50;99.90
59651;DHT22;45954;49.768;8.636;2022-09-17T06:15:52;12.50;99.90
59651;DHT22;45954;49.768;8.636;2022-09-17T06:18:19;12.60;99.90
59651;DHT22;45954;49.768;8.636;2022-09-17T06:21:00;12.50;99.90
59651;DHT22;45954;49.768;8.636;2022-09-17T06:23:31;12.60;99.90
59651;DHT22;45954;49.768;8.636;2022-09-17T06:26:01;12.60;99.90
59651;DHT22;45954;49.768;8.636;2022-09-17T06:28:29;12.30;99.90
59651;DHT22;45954;49.768;8.636;2022-09-17T06:31:01;12.00;99.90
59651;DHT22;45954;49.768;8.636;2022-09-17T06:33:31;12.00;99.90
59651;DHT22;45954;49.768;8.636;2022-09-17T06:36:03;12.00;99.90
59651;DHT22;45954;49.768;8.636;2022-09-17T06:38:33;12.20;99.90
59651;DHT22;45954;49.768;8.636;2022-09-17T06:41:00;12.20;99.90
59651;DHT22;45954;49.768;8.636;2022-09-17T06:43:26;12.20;99.90
59651;DHT22;45954;49.768;8.636;2022-09-17T06:45:53;12.10;99.90
59651;DHT22;45954;49.768;8.636;2022-09-17T06:48:28;12.20;99.90
59651;DHT22;45954;49.768;8.636;2022-09-17T06:50:59;12.40;99.90
59651;DHT22;45954;49.768;8.636;2022-09-17T06:53:26;12.20;99.90
59651;DHT22;45954;49.768;8.636;2022-09-17T06:55:56;12.20;99.90
59651;DHT22;45954;49.768;8.636;2022-09-17T06:58:24;12.10;99.90
59651;DHT22;45954;49.768;8.636;2022-09-17T07:00:50;12.00;99.90
59651;DHT22;45954;49.768;8.636;2022-09-17T07:03:16;12.20;99.90
59651;DHT22;45954;49.768;8.636;2022-09-17T07:05:43;12.20;99.90
59651;DHT22;45954;49.768;8.636;2022-09-17T07:08:10;12.20;99.90
59651;DHT22;45954;49.768;8.636;2022-09-17T07:10:36;12.30;99.90
59651;DHT22;45954;49.768;8.636;2022-09-17T07:13:04;12.30;99.90
59651;DHT22;45954;49.768;8.636;2022-09-17T07:15:30;12.50;99.90
59651;DHT22;45954;49.768;8.636;2022-09-17T07:17:57;12.40;99.90
59651;DHT22;45954;49.768;8.636;2022-09-17T07:20:24;12.20;99.90
59651;DHT22;45954;49.768;8.636;2022-09-17T07:22:57;12.30;99.90
59651;DHT22;45954;49.768;8.636;2022-09-17T07:25:24;12.40;99.90
59651;DHT22;45954;49.768;8.636;2022-09-17T07:27:51;12.50;99.90
59651;DHT22;45954;49.768;8.636;2022-09-17T07:30:19;12.40;99.90
59651;DHT22;45954;49.768;8.636;2022-09-17T07:32:45;12.40;99.90
59651;DHT22;45954;49.768;8.636;2022-09-17T07:35:12;12.50;99.90
59651;DHT22;45954;49.768;8.636;2022-09-17T07:37:38;12.70;99.90
59651;DHT22;45954;49.768;8.636;2022-09-17T07:40:04;12.70;99.90
59651;DHT22;45954;49.768;8.636;2022-09-17T07:42:31;13.00;99.90
59651;DHT22;45954;49.768;8.636;2022-09-17T07:44:58;12.60;99.90
59651;DHT22;45954;49.768;8.636;2022-09-17T07:47:24;12.40;99.90
59651;DHT22;45954;49.768;8.636;2022-09-17T07:49:50;12.70;99.90
59651;DHT22;45954;49.768;8.636;2022-09-17T07:52:15;12.60;99.90
59651;DHT22;45954;49.768;8.636;2022-09-17T07:54:41;12.80;99.90
59651;DHT22;45954;49.768;8.636;2022-09-17T07:57:07;13.10;99.90
59651;DHT22;45954;49.768;8.636;2022-09-17T07:59:33;12.80;99.90
59651;DHT22;45954;49.768;8.636;2022-09-17T08:01:59;12.90;99.90
59651;DHT22;45954;49.768;8.636;2022-09-17T08:04:25;13.20;99.90
59651;DHT22;45954;49.768;8.636;2022-09-17T08:06:51;13.20;99.90
59651;DHT22;45954;49.768;8.636;2022-09-17T08:09:17;13.30;99.90
59651;DHT22;45954;49.768;8.636;2022-09-17T08:11:43;13.50;99.90
59651;DHT22;45954;49.768;8.636;2022-09-17T08:14:12;13.10;99.90
59651;DHT22;45954;49.768;8.636;2022-09-17T08:16:40;13.00;99.90
59651;DHT22;45954;49.768;8.636;2022-09-17T08:19:06;13.30;99.90
59651;DHT22;45954;49.768;8.636;2022-09-17T08:21:32;13.40;99.90
59651;DHT22;45954;49.768;8.636;2022-09-17T08:23:58;13.60;99.90
59651;DHT22;45954;49.768;8.636;2022-09-17T08:26:23;13.60;99.90
59651;DHT22;45954;49.768;8.636;2022-09-17T08:28:53;13.60;99.90
59651;DHT22;45954;49.768;8.636;2022-09-17T08:31:23;13.30;99.90
59651;DHT22;45954;49.768;8.636;2022-09-17T08:33:51;13.50;99.90
59651;DHT22;45954;49.768;8.636;2022-09-17T08:36:18;13.60;99.90
59651;DHT22;45954;49.768;8.636;2022-09-17T08:38:45;13.60;99.90
59651;DHT22;45954;49.768;8.636;2022-09-17T08:41:19;13.20;99.90
59651;DHT22;45954;49.768;8.636;2022-09-17T08:44:14;13.30;99.90
59651;DHT22;45954;49.768;8.636;2022-09-17T08:46:49;13.50;99.90
59651;DHT22;45954;49.768;8.636;2022-09-17T09:04:24;13.80;99.90
59651;DHT22;45954;49.768;8.636;2022-09-17T09:09:36;14.00;99.90
59651;DHT22;45954;49.768;8.636;2022-09-17T09:12:16;13.90;99.90
59651;DHT22;45954;49.768;8.636;2022-09-17T09:15:16;14.00;99.90
59651;DHT22;45954;49.768;8.636;2022-09-17T09:17:48;14.10;99.90
59651;DHT22;45954;49.768;8.636;2022-09-17T09:20:40;14.00;99.60
59651;DHT22;45954;49.768;8.636;2022-09-17T09:23:18;14.20;99.90
59651;DHT22;45954;49.768;8.636;2022-09-17T09:26:18;14.40;99.90
59651;DHT22;45954;49.768;8.636;2022-09-17T09:32:06;14.90;99.70
59651;DHT22;45954;49.768;8.636;2022-09-17T09:34:40;14.60;99.40
59651;DHT22;45954;49.768;8.636;2022-09-17T09:37:26;14.30;99.90
59651;DHT22;45954;49.768;8.636;2022-09-17T09:40:50;14.10;99.90
59651;DHT22;45954;49.768;8.636;2022-09-17T09:43:21;14.30;99.90
59651;DHT22;45954;49.768;8.636;2022-09-17T09:46:08;14.70;98.70
59651;DHT22;45954;49.768;8.636;2022-09-17T09:49:11;14.90;97.90
59651;DHT22;45954;49.768;8.636;2022-09-17T09:58:16;15.20;98.30
59651;DHT22;45954;49.768;8.636;2022-09-17T10:00:50;15.30;97.90
59651;DHT22;45954;49.768;8.636;2022-09-17T10:03:21;15.60;98.40
59651;DHT22;45954;49.768;8.636;2022-09-17T10:06:07;15.70;96.60
59651;DHT22;45954;49.768;8.636;2022-09-17T10:11:28;15.80;95.80
59651;DHT22;45954;49.768;8.636;2022-09-17T10:14:22;15.60;96.10
59651;DHT22;45954;49.768;8.636;2022-09-17T10:17:17;15.40;96.70
59651;DHT22;45954;49.768;8.636;2022-09-17T10:22:43;14.20;99.90
59651;DHT22;45954;49.768;8.636;2022-09-17T10:25:31;13.30;99.90
59651;DHT22;45954;49.768;8.636;2022-09-17T10:28:03;13.00;99.90
59651;DHT22;45954;49.768;8.636;2022-09-17T10:30:31;13.00;99.90
59651;DHT22;45954;49.768;8.636;2022-09-17T10:33:21;13.10;99.90
59651;DHT22;45954;49.768;8.636;2022-09-17T10:36:11;13.10;99.90
59651;DHT22;45954;49.768;8.636;2022-09-17T10:38:40;13.20;99.90
59651;DHT22;45954;49.768;8.636;2022-09-17T10:41:12;13.10;99.90
59651;DHT22;45954;49.768;8.636;2022-09-17T10:43:50;13.10;99.90
59651;DHT22;45954;49.768;8.636;2022-09-17T10:46:25;13.40;99.90
59651;DHT22;45954;49.768;8.636;2022-09-17T10:49:08;13.60;99.90
59651;DHT22;45954;49.768;8.636;2022-09-17T10:51:36;14.10;99.90
59651;DHT22;45954;49.768;8.636;2022-09-17T10:56:44;14.50;99.90
59651;DHT22;45954;49.768;8.636;2022-09-17T10:59:25;14.70;99.90
59651;DHT22;45954;49.768;8.636;2022-09-17T11:02:09;15.00;99.90
59651;DHT22;45954;49.768;8.636;2022-09-17T11:05:50;15.20;99.90
59651;DHT22;45954;49.768;8.636;2022-09-17T11:08:33;15.00;99.90
59651;DHT22;45954;49.768;8.636;2022-09-17T11:11:17;14.90;99.90
59651;DHT22;45954;49.768;8.636;2022-09-17T11:14:11;14.80;99.90
59651;DHT22;45954;49.768;8.636;2022-09-17T11:16:54;14.90;99.90
59651;DHT22;45954;49.768;8.636;2022-09-17T11:19:52;15.00;99.90
59651;DHT22;45954;49.768;8.636;2022-09-17T11:22:46;14.80;99.90
59651;DHT22;45954;49.768;8.636;2022-09-17T11:39:53;15.70;99.90
59651;DHT22;45954;49.768;8.636;2022-09-17T11:42:37;15.30;99.90
59651;DHT22;45954;49.768;8.636;2022-09-17T11:45:23;15.40;99.90
59651;DHT22;45954;49.768;8.636;2022-09-17T11:48:09;15.70;99.90
59651;DHT22;45954;49.768;8.636;2022-09-17T11:50:54;15.90;99.90
59651;DHT22;45954;49.768;8.636;2022-09-17T11:56:23;15.90;99.10
59651;DHT22;45954;49.768;8.636;2022-09-17T11:59:18;16.00;99.70
59651;DHT22;45954;49.768;8.636;2022-09-17T12:02:09;15.90;99.10
59651;DHT22;45954;49.768;8.636;2022-09-17T12:05:06;16.30;99.40
59651;DHT22;45954;49.768;8.636;2022-09-17T12:11:22;15.70;98.80
59651;DHT22;45954;49.768;8.636;2022-09-17T12:13:56;15.80;99.90
59651;DHT22;45954;49.768;8.636;2022-09-17T12:16:37;16.00;98.20
59651;DHT22;45954;49.768;8.636;2022-09-17T12:22:22;16.00;99.10
59651;DHT22;45954;49.768;8.636;2022-09-17T12:24:53;16.00;98.60
59651;DHT22;45954;49.768;8.636;2022-09-17T12:30:23;16.10;95.80
59651;DHT22;45954;49.768;8.636;2022-09-17T12:39:34;16.50;94.40
59651;DHT22;45954;49.768;8.636;2022-09-17T12:42:40;16.60;94.50
59651;DHT22;45954;49.768;8.636;2022-09-17T12:45:39;17.30;95.40
59651;DHT22;45954;49.768;8.636;2022-09-17T12:51:49;17.00;93.00
59651;DHT22;45954;49.768;8.636;2022-09-17T12:59:56;18.00;93.10
59651;DHT22;45954;49.768;8.636;2022-09-17T13:02:30;18.10;92.10
59651;DHT22;45954;49.768;8.636;2022-09-17T13:05:27;18.40;92.20
59651;DHT22;45954;49.768;8.636;2022-09-17T13:08:27;18.30;90.70
59651;DHT22;45954;49.768;8.636;2022-09-17T13:14:17;18.20;90.20
59651;DHT22;45954;49.768;8.636;2022-09-17T13:17:22;18.40;90.10
59651;DHT22;45954;49.768;8.636;2022-09-17T13:20:14;18.80;86.80
59651;DHT22;45954;49.768;8.636;2022-09-17T13:22:48;18.70;89.40
59651;DHT22;45954;49.768;8.636;2022-09-17T13:25:18;18.50;85.70
59651;DHT22;45954;49.768;8.636;2022-09-17T13:27:46;18.40;85.30
59651;DHT22;45954;49.768;8.636;2022-09-17T13:30:18;18.20;87.60
59651;DHT22;45954;49.768;8.636;2022-09-17T13:32:52;18.10;87.90
59651;DHT22;45954;49.768;8.636;2022-09-17T13:37:56;17.70;90.80
59651;DHT22;45954;49.768;8.636;2022-09-17T13:40:34;17.70;91.50
59651;DHT22;45954;49.768;8.636;2022-09-17T13:46:05;17.70;91.30
59651;DHT22;45954;49.768;8.636;2022-09-17T13:48:31;18.10;90.10
59651;DHT22;45954;49.768;8.636;2022-09-17T13:54:08;18.50;85.30
59651;DHT22;45954;49.768;8.636;2022-09-17T13:56:42;18.70;85.30
59651;DHT22;45954;49.768;8.636;2022-09-17T13:59:27;18.00;85.60
59651;DHT22;45954;49.768;8.636;2022-09-17T14:02:00;17.80;88.00
59651;DHT22;45954;49.768;8.636;2022-09-17T14:15:35;18.10;87.50
59651;DHT22;45954;49.768;8.636;2022-09-17T14:21:22;17.40;88.90
59651;DHT22;45954;49.768;8.636;2022-09-17T14:23:56;16.70;90.10
59651;DHT22;45954;49.768;8.636;2022-09-17T14:27:02;16.70;90.60
59651;DHT22;45954;49.768;8.636;2022-09-17T14:32:38;16.20;91.90
59651;DHT22;45954;49.768;8.636;2022-09-17T14:38:33;16.50;92.30
59651;DHT22;45954;49.768;8.636;2022-09-17T14:43:59;16.10;92.70
59651;DHT22;45954;49.768;8.636;2022-09-17T14:49:13;15.50;93.40
59651;DHT22;45954;49.768;8.636;2022-09-17T14:51:41;15.50;94.00
59651;DHT22;45954;49.768;8.636;2022-09-17T14:54:30;15.50;93.70
59651;DHT22;45954;49.768;8.636;2022-09-17T14:57:01;15.80;93.60
59651;DHT22;45954;49.768;8.636;2022-09-17T15:02:26;17.20;93.30
59651;DHT22;45954;49.768;8.636;2022-09-17T15:04:54;18.20;90.70
59651;DHT22;45954;49.768;8.636;2022-09-17T15:07:22;17.30;90.70
59651;DHT22;45954;49.768;8.636;2022-09-17T15:09:48;17.40;91.60
59651;DHT22;45954;49.768;8.636;2022-09-17T15:12:22;17.00;91.70
59651;DHT22;45954;49.768;8.636;2022-09-17T15:14:54;16.50;92.90
59651;DHT22;45954;49.768;8.636;2022-09-17T15:17:20;16.50;93.40
59651;DHT22;45954;49.768;8.636;2022-09-17T15:19:54;16.20;93.70
59651;DHT22;45954;49.768;8.636;2022-09-17T15:22:26;16.00;94.20
59651;DHT22;45954;49.768;8.636;2022-09-17T15:24:58;16.20;94.50
59651;DHT22;45954;49.768;8.636;2022-09-17T15:27:36;16.10;94.60
59651;DHT22;45954;49.768;8.636;2022-09-17T15:30:19;16.20;94.10
59651;DHT22;45954;49.768;8.636;2022-09-17T15:32:57;16.20;94.30
59651;DHT22;45954;49.768;8.636;2022-09-17T15:35:32;16.30;93.90
59651;DHT22;45954;49.768;8.636;2022-09-17T15:38:02;15.80;94.50
59651;DHT22;45954;49.768;8.636;2022-09-17T15:40:45;15.50;95.20
59651;DHT22;45954;49.768;8.636;2022-09-17T15:43:27;15.30;95.30
59651;DHT22;45954;49.768;8.636;2022-09-17T15:45:55;15.10;96.60
59651;DHT22;45954;49.768;8.636;2022-09-17T15:48:34;14.70;99.90
59651;DHT22;45954;49.768;8.636;2022-09-17T15:51:04;14.40;99.90
59651;DHT22;45954;49.768;8.636;2022-09-17T15:53:37;14.50;99.90
59651;DHT22;45954;49.768;8.636;2022-09-17T15:56:07;14.60;99.90
59651;DHT22;45954;49.768;8.636;2022-09-17T16:08:53;14.10;99.90
59651;DHT22;45954;49.768;8.636;2022-09-17T16:11:26;14.30;99.90
59651;DHT22;45954;49.768;8.636;2022-09-17T16:13:55;14.20;99.90
59651;DHT22;45954;49.768;8.636;2022-09-17T16:16:29;14.10;99.90
59651;DHT22;45954;49.768;8.636;2022-09-17T16:18:58;14.20;99.90
59651;DHT22;45954;49.768;8.636;2022-09-17T16:21:24;14.40;99.90
59651;DHT22;45954;49.768;8.636;2022-09-17T16:23:50;14.50;99.90
59651;DHT22;45954;49.768;8.636;2022-09-17T16:26:26;14.50;99.90
59651;DHT22;45954;49.768;8.636;2022-09-17T16:29:01;14.20;99.90
59651;DHT22;45954;49.768;8.636;2022-09-17T16:31:29;14.20;99.90
59651;DHT22;45954;49.768;8.636;2022-09-17T16:33:55;14.30;99.90
59651;DHT22;45954;49.768;8.636;2022-09-17T16:36:21;14.50;99.90
59651;DHT22;45954;49.768;8.636;2022-09-17T16:38:47;14.50;99.90
59651;DHT22;45954;49.768;8.636;2022-09-17T16:41:13;14.50;99.90
59651;DHT22;45954;49.768;8.636;2022-09-17T16:43:39;14.90;99.90
59651;DHT22;45954;49.768;8.636;2022-09-17T16:46:07;15.20;99.90
59651;DHT22;45954;49.768;8.636;2022-09-17T16:48:36;14.90;99.90
59651;DHT22;45954;49.768;8.636;2022-09-17T16:51:09;15.10;99.90
59651;DHT22;45954;49.768;8.636;2022-09-17T16:53:36;15.00;99.90
59651;DHT22;45954;49.768;8.636;2022-09-17T16:56:06;14.90;99.90
59651;DHT22;45954;49.768;8.636;2022-09-17T16:58:37;14.80;99.90
59651;DHT22;45954;49.768;8.636;2022-09-17T17:01:10;14.60;99.90
59651;DHT22;45954;49.768;8.636;2022-09-17T17:03:37;14.50;99.90
59651;DHT22;45954;49.768;8.636;2022-09-17T17:06:04;14.50;99.90
59651;DHT22;45954;49.768;8.636;2022-09-17T17:08:31;13.90;99.90
59651;DHT22;45954;49.768;8.636;2022-09-17T17:10:58;13.80;99.90
59651;DHT22;45954;49.768;8.636;2022-09-17T17:13:25;13.90;99.90
59651;DHT22;45954;49.768;8.636;2022-09-17T17:15:52;14.20;99.90
59651;DHT22;45954;49.768;8.636;2022-09-17T17:18:22;14.30;99.90
59651;DHT22;45954;49.768;8.636;2022-09-17T17:20:49;14.30;99.90
59651;DHT22;45954;49.768;8.636;2022-09-17T17:23:16;14.10;99.90
59651;DHT22;45954;49.768;8.636;2022-09-17T17:25:42;14.30;99.90
59651;DHT22;45954;49.768;8.636;2022-09-17T17:28:08;14.10;99.90
59651;DHT22;45954;49.768;8.636;2022-09-17T17:30:34;14.10;99.90
59651;DHT22;45954;49.768;8.636;2022-09-17T17:33:00;13.90;99.90
59651;DHT22;45954;49.768;8.636;2022-09-17T17:35:28;14.00;99.90
59651;DHT22;45954;49.768;8.636;2022-09-17T17:37:54;13.90;99.90
59651;DHT22;45954;49.768;8.636;2022-09-17T17:40:20;13.60;99.90
59651;DHT22;45954;49.768;8.636;2022-09-17T17:42:51;13.30;99.90
59651;DHT22;45954;49.768;8.636;2022-09-17T17:45:17;13.30;99.90
59651;DHT22;45954;49.768;8.636;2022-09-17T17:47:43;13.30;99.90
59651;DHT22;45954;49.768;8.636;2022-09-17T17:50:08;13.20;99.90
59651;DHT22;45954;49.768;8.636;2022-09-17T17:52:35;13.40;99.90
59651;DHT22;45954;49.768;8.636;2022-09-17T17:55:05;13.40;99.90
59651;DHT22;45954;49.768;8.636;2022-09-17T17:57:31;13.10;99.90
59651;DHT22;45954;49.768;8.636;2022-09-17T17:59:57;13.10;99.90
59651;DHT22;45954;49.768;8.636;2022-09-17T18:02:23;13.20;99.90
59651;DHT22;45954;49.768;8.636;2022-09-17T18:04:48;13.30;99.90
59651;DHT22;45954;49.768;8.636;2022-09-17T18:07:14;13.10;99.90
59651;DHT22;45954;49.768;8.636;2022-09-17T18:09:40;12.90;99.90
59651;DHT22;45954;49.768;8.636;2022-09-17T18:12:06;13.10;99.90
59651;DHT22;45954;49.768;8.636;2022-09-17T18:14:32;13.30;99.90
59651;DHT22;45954;49.768;8.636;2022-09-17T18:16:58;13.30;99.90
59651;DHT22;45954;49.768;8.636;2022-09-17T18:19:24;13.50;99.90
59651;DHT22;45954;49.768;8.636;2022-09-17T18:21:52;13.30;99.90
59651;DHT22;45954;49.768;8.636;2022-09-17T18:24:18;12.70;99.90
59651;DHT22;45954;49.768;8.636;2022-09-17T18:26:44;12.50;99.90
59651;DHT22;45954;49.768;8.636;2022-09-17T18:29:10;12.80;99.90
59651;DHT22;45954;49.768;8.636;2022-09-17T18:31:37;12.80;99.90
59651;DHT22;45954;49.768;8.636;2022-09-17T18:34:09;12.80;99.90
59651;DHT22;45954;49.768;8.636;2022-09-17T18:36:37;13.10;99.90
59651;DHT22;45954;49.768;8.636;2022-09-17T18:39:06;13.00;99.90
59651;DHT22;45954;49.768;8.636;2022-09-17T18:41:36;12.80;99.90
59651;DHT22;45954;49.768;8.636;2022-09-17T18:44:09;13.00;99.90
59651;DHT22;45954;49.768;8.636;2022-09-17T18:46:36;13.20;99.90
59651;DHT22;45954;49.768;8.636;2022-09-17T18:49:03;13.30;99.90
59651;DHT22;45954;49.768;8.636;2022-09-17T18:51:29;13.40;99.90